createdAt,value
2022-11-02T00:00:50.533Z,9.60
2022-11-02T00:03:17.512Z,10.33
2022-11-02T00:05:44.379Z,10.10
2022-11-02T00:08:11.240Z,9.60
2022-11-02T00:10:38.097Z,9.43
2022-11-02T00:13:05.274Z,9.10
2022-11-02T00:15:35.017Z,9.67
2022-11-02T00:18:09.793Z,9.00
2022-11-02T00:20:39.761Z,8.80
2022-11-02T00:23:10.732Z,8.87
2022-11-02T00:25:47.803Z,10.13
2022-11-02T00:28:15.844Z,8.43
2022-11-02T00:30:43.565Z,9.20
2022-11-02T00:33:10.695Z,7.87
2022-11-02T00:35:38.421Z,8.90
2022-11-02T00:38:06.111Z,7.40
2022-11-02T00:40:33.312Z,8.07
2022-11-02T00:43:00.549Z,8.90
2022-11-02T00:45:27.469Z,8.60
2022-11-02T00:47:54.313Z,8.30
2022-11-02T00:50:21.207Z,7.03
2022-11-02T00:52:48.112Z,6.70
2022-11-02T00:55:15.480Z,6.23
2022-11-02T00:57:42.477Z,6.63
2022-11-02T01:00:11.264Z,8.10
2022-11-02T01:02:39.411Z,6.90
2022-11-02T01:05:07.918Z,6.53
2022-11-02T01:07:35.460Z,6.50
2022-11-02T01:10:02.343Z,6.60
2022-11-02T01:12:29.172Z,6.00
2022-11-02T01:14:56.065Z,6.10
2022-11-02T01:17:22.912Z,6.33
2022-11-02T01:19:51.157Z,6.30
2022-11-02T01:22:18.083Z,6.47
2022-11-02T01:24:44.941Z,6.30
2022-11-02T01:27:11.802Z,6.40
2022-11-02T01:29:38.658Z,6.80
2022-11-02T01:32:05.634Z,6.87
2022-11-02T01:34:32.593Z,6.50
2022-11-02T01:36:59.437Z,6.53
2022-11-02T01:39:26.270Z,6.60
2022-11-02T01:41:53.919Z,5.27
2022-11-02T01:44:33.746Z,5.60
2022-11-02T01:47:08.279Z,5.30
2022-11-02T01:49:41.852Z,5.13
2022-11-02T01:52:22.988Z,5.47
2022-11-02T01:55:04.382Z,5.40
2022-11-02T01:57:33.822Z,5.13
2022-11-02T02:00:10.102Z,5.07
2022-11-02T02:02:46.241Z,6.90
2022-11-02T02:05:14.791Z,4.57
2022-11-02T02:07:42.295Z,4.50
2022-11-02T02:10:09.313Z,4.93
2022-11-02T02:12:39.982Z,4.37
2022-11-02T02:15:07.925Z,5.57
2022-11-02T02:18:05.025Z,5.70
2022-11-02T02:20:44.459Z,4.40
2022-11-02T02:23:43.357Z,5.10
2022-11-02T02:26:40.332Z,3.73
2022-11-02T02:29:24.618Z,4.50
2022-11-02T02:32:01.837Z,3.77
2022-11-02T02:34:53.295Z,5.00
2022-11-02T02:37:48.603Z,3.97
2022-11-02T02:40:48.334Z,3.97
2022-11-02T02:43:52.520Z,3.83
2022-11-02T02:46:26.035Z,4.33
2022-11-02T02:48:55.896Z,4.67
2022-11-02T02:51:28.821Z,5.00
2022-11-02T02:54:11.155Z,5.00
2022-11-02T02:56:52.037Z,4.50
2022-11-02T02:59:28.119Z,4.80
2022-11-02T03:01:56.221Z,5.20
2022-11-02T03:04:23.107Z,3.90
2022-11-02T03:06:55.854Z,5.13
2022-11-02T03:09:40.793Z,3.87
2022-11-02T03:12:19.597Z,4.10
2022-11-02T03:15:35.552Z,4.23
2022-11-02T03:18:18.330Z,3.37
2022-11-02T03:21:22.450Z,3.63
2022-11-02T03:24:01.239Z,3.87
2022-11-02T03:26:56.368Z,3.50
2022-11-02T03:29:44.341Z,3.70
2022-11-02T03:32:25.301Z,3.70
2022-11-02T03:34:58.331Z,4.10
2022-11-02T03:37:33.585Z,3.47
2022-11-02T03:40:15.045Z,3.80
2022-11-02T03:42:43.645Z,4.30
2022-11-02T03:45:21.386Z,3.90
2022-11-02T03:47:55.416Z,4.10
2022-11-02T03:50:23.824Z,3.70
2022-11-02T03:53:06.607Z,3.93
2022-11-02T03:55:42.556Z,4.57
2022-11-02T03:58:12.866Z,3.83
2022-11-02T04:00:55.524Z,4.20
2022-11-02T04:03:25.053Z,6.83
2022-11-02T04:05:51.950Z,3.80
2022-11-02T04:08:29.371Z,3.93
2022-11-02T04:11:14.503Z,3.87
2022-11-02T04:14:00.268Z,4.80
2022-11-02T04:16:28.363Z,3.13
2022-11-02T04:19:14.552Z,4.10
2022-11-02T04:22:01.838Z,3.77
2022-11-02T04:24:46.929Z,2.90
2022-11-02T04:27:18.111Z,3.10
2022-11-02T04:29:47.598Z,3.83
2022-11-02T04:32:14.494Z,3.17
2022-11-02T04:34:41.331Z,3.53
2022-11-02T04:37:28.180Z,3.73
2022-11-02T04:39:55.082Z,3.13
2022-11-02T04:42:21.930Z,2.90
2022-11-02T04:44:48.777Z,3.20
2022-11-02T04:47:15.610Z,2.83
2022-11-02T04:49:42.513Z,2.80
2022-11-02T04:52:09.816Z,3.10
2022-11-02T04:54:36.663Z,3.70
2022-11-02T04:57:03.551Z,4.07
2022-11-02T04:59:30.367Z,3.30
2022-11-02T05:01:57.452Z,3.43
2022-11-02T05:04:24.417Z,3.53
2022-11-02T05:06:51.267Z,3.57
2022-11-02T05:09:18.133Z,3.20
2022-11-02T05:11:44.994Z,3.97
2022-11-02T05:14:11.859Z,3.87
2022-11-02T05:16:38.700Z,3.30
2022-11-02T05:19:08.398Z,2.90
2022-11-02T05:21:37.702Z,2.93
2022-11-02T05:24:04.917Z,3.00
2022-11-02T05:26:31.754Z,3.13
2022-11-02T05:28:58.718Z,3.33
2022-11-02T05:31:26.769Z,2.80
2022-11-02T05:33:53.621Z,2.63
2022-11-02T05:36:20.475Z,3.37
2022-11-02T05:38:47.353Z,3.30
2022-11-02T05:41:14.232Z,2.70
2022-11-02T05:43:41.107Z,3.00
2022-11-02T05:46:07.960Z,2.60
2022-11-02T05:48:34.811Z,2.50
2022-11-02T05:51:04.174Z,2.30
2022-11-02T05:53:33.778Z,2.77
2022-11-02T05:56:02.259Z,3.27
2022-11-02T05:58:29.714Z,2.60
2022-11-02T06:01:05.730Z,2.80
2022-11-02T06:03:33.074Z,3.37
2022-11-02T06:06:06.456Z,3.40
2022-11-02T06:08:34.997Z,3.90
2022-11-02T06:11:11.496Z,5.03
2022-11-02T06:13:39.904Z,4.50
2022-11-02T06:16:09.870Z,3.53
2022-11-02T06:18:38.035Z,2.90
2022-11-02T06:21:05.512Z,2.57
2022-11-02T06:23:33.021Z,2.93
2022-11-02T06:26:01.042Z,3.87
2022-11-02T06:28:28.971Z,2.90
2022-11-02T06:30:55.950Z,5.23
2022-11-02T06:33:23.366Z,3.30
2022-11-02T06:35:53.033Z,3.30
2022-11-02T06:38:20.113Z,2.87
2022-11-02T06:41:02.202Z,3.40
2022-11-02T06:43:29.202Z,3.13
2022-11-02T06:45:58.133Z,3.10
2022-11-02T06:48:31.542Z,2.70
2022-11-02T06:51:01.743Z,2.97
2022-11-02T06:53:28.692Z,3.37
2022-11-02T06:55:57.232Z,2.87
2022-11-02T06:58:25.269Z,2.80
2022-11-02T07:01:05.622Z,3.00
2022-11-02T07:03:33.012Z,2.57
2022-11-02T07:06:00.316Z,2.13
2022-11-02T07:08:27.836Z,2.40
2022-11-02T07:10:55.721Z,2.93
2022-11-02T07:13:22.896Z,2.80
2022-11-02T07:15:53.489Z,3.07
2022-11-02T07:18:21.051Z,3.03
2022-11-02T07:20:47.932Z,2.30
2022-11-02T07:23:14.941Z,3.03
2022-11-02T07:25:41.831Z,3.10
2022-11-02T07:28:08.873Z,2.50
2022-11-02T07:30:36.176Z,3.00
2022-11-02T07:33:03.731Z,2.70
2022-11-02T07:35:30.941Z,3.10
2022-11-02T07:38:03.809Z,3.10
2022-11-02T07:40:32.772Z,2.80
2022-11-02T07:45:29.160Z,2.50
2022-11-02T07:47:56.081Z,3.20
2022-11-02T07:50:26.960Z,4.47
2022-11-02T07:52:57.063Z,2.73
2022-11-02T07:55:27.951Z,2.43
2022-11-02T07:58:04.113Z,2.47
2022-11-02T08:00:34.945Z,2.63
2022-11-02T08:03:03.834Z,2.10
2022-11-02T08:05:34.608Z,1.67
2022-11-02T08:08:06.988Z,2.67
2022-11-02T08:10:37.269Z,2.33
2022-11-02T08:13:07.232Z,2.37
2022-11-02T08:15:34.164Z,2.20
2022-11-02T08:18:14.729Z,2.20
2022-11-02T08:20:42.169Z,2.20
2022-11-02T08:23:10.992Z,2.30
2022-11-02T08:25:39.563Z,2.63
2022-11-02T08:28:09.884Z,3.00
2022-11-02T08:30:38.372Z,2.13
2022-11-02T08:33:16.220Z,2.60
2022-11-02T08:35:45.016Z,3.37
2022-11-02T08:38:12.743Z,2.43
2022-11-02T08:40:40.189Z,1.87
2022-11-02T08:43:10.865Z,2.70
2022-11-02T08:46:12.433Z,2.30
2022-11-02T08:48:27.624Z,2.00
2022-11-02T08:50:55.736Z,3.50
2022-11-02T08:53:23.085Z,6.00
2022-11-02T08:55:49.977Z,2.77
2022-11-02T08:58:18.483Z,2.40
2022-11-02T09:00:45.537Z,2.20
2022-11-02T09:03:14.797Z,2.03
2022-11-02T09:05:45.202Z,3.10
2022-11-02T09:08:16.613Z,2.03
2022-11-02T09:10:45.052Z,2.63
2022-11-02T09:13:14.850Z,2.17
2022-11-02T09:15:42.067Z,2.07
2022-11-02T09:18:09.485Z,2.47
2022-11-02T09:20:36.859Z,2.73
2022-11-02T09:23:04.045Z,2.60
2022-11-02T09:25:31.034Z,1.67
2022-11-02T09:27:58.799Z,2.60
2022-11-02T09:30:28.572Z,2.20
2022-11-02T09:33:02.549Z,2.17
2022-11-02T09:35:33.928Z,3.00
2022-11-02T09:38:00.952Z,1.87
2022-11-02T09:40:41.233Z,2.03
2022-11-02T09:43:36.075Z,1.80
2022-11-02T09:46:44.029Z,2.40
2022-11-02T09:49:23.690Z,2.07
2022-11-02T09:51:59.203Z,2.43
2022-11-02T09:54:42.003Z,2.27
2022-11-02T09:57:17.395Z,2.03
2022-11-02T09:59:44.293Z,1.87
2022-11-02T10:02:56.789Z,2.37
2022-11-02T10:05:45.752Z,2.20
2022-11-02T10:08:30.468Z,1.77
2022-11-02T10:11:16.588Z,2.57
2022-11-02T10:14:05.493Z,2.10
2022-11-02T10:16:55.291Z,2.73
2022-11-02T10:19:26.206Z,1.90
2022-11-02T10:21:58.372Z,2.13
2022-11-02T10:24:43.589Z,1.93
2022-11-02T10:27:23.642Z,2.30
2022-11-02T10:30:19.316Z,2.10
2022-11-02T10:32:51.261Z,2.13
2022-11-02T10:35:45.456Z,2.10
2022-11-02T10:38:33.996Z,2.27
2022-11-02T10:41:14.759Z,2.50
2022-11-02T10:44:03.219Z,2.40
2022-11-02T10:47:20.600Z,2.50
2022-11-02T10:50:35.038Z,2.10
2022-11-02T10:53:27.257Z,2.20
2022-11-02T10:55:57.272Z,1.93
2022-11-02T10:58:28.524Z,1.80
2022-11-02T11:01:12.661Z,2.50
2022-11-02T11:04:02.189Z,2.10
2022-11-02T11:06:36.601Z,2.23
2022-11-02T11:09:47.092Z,1.93
2022-11-02T11:12:31.613Z,1.60
2022-11-02T11:20:39.728Z,2.37
2022-11-02T11:23:24.989Z,2.07
2022-11-02T11:26:04.790Z,2.30
2022-11-02T11:28:52.834Z,1.77
2022-11-02T11:31:20.078Z,2.13
2022-11-02T11:33:54.188Z,3.30
2022-11-02T11:36:31.219Z,6.60
2022-11-02T11:39:06.847Z,2.00
2022-11-02T11:41:38.821Z,2.70
2022-11-02T11:44:14.150Z,2.50
2022-11-02T11:46:44.638Z,2.73
2022-11-02T11:49:48.105Z,1.93
2022-11-02T11:52:32.108Z,1.70
2022-11-02T11:55:55.252Z,2.33
2022-11-02T11:58:33.763Z,2.60
2022-11-02T12:01:12.460Z,1.30
2022-11-02T12:03:56.094Z,3.00
2022-11-02T12:06:51.855Z,1.97
2022-11-02T12:09:35.294Z,1.57
2022-11-02T12:12:37.320Z,2.23
2022-11-02T12:15:47.520Z,1.73
2022-11-02T12:18:52.774Z,2.20
2022-11-02T12:21:40.992Z,2.20
2022-11-02T12:25:29.404Z,2.03
2022-11-02T12:28:21.093Z,1.90
2022-11-02T12:31:01.450Z,2.20
2022-11-02T12:34:21.121Z,1.30
2022-11-02T12:37:32.808Z,1.83
2022-11-02T12:40:12.871Z,1.90
2022-11-02T12:43:27.992Z,2.50
2022-11-02T12:46:32.718Z,1.53
2022-11-02T12:49:25.299Z,1.60
2022-11-02T12:52:13.569Z,1.43
2022-11-02T12:54:51.364Z,2.17
2022-11-02T12:57:22.719Z,1.57
2022-11-02T12:59:56.886Z,1.47
2022-11-02T13:02:31.784Z,1.53
2022-11-02T13:05:08.310Z,1.80
2022-11-02T13:08:02.244Z,1.50
2022-11-02T13:10:38.979Z,1.63
2022-11-02T13:13:16.621Z,1.60
2022-11-02T13:15:46.624Z,1.47
2022-11-02T13:18:30.190Z,1.27
2022-11-02T13:21:02.144Z,1.67
2022-11-02T13:23:35.927Z,1.87
2022-11-02T13:26:09.452Z,1.30
2022-11-02T13:28:45.879Z,1.93
2022-11-02T13:31:21.148Z,1.20
2022-11-02T13:33:53.459Z,1.60
2022-11-02T13:36:20.387Z,1.27
2022-11-02T13:38:55.735Z,1.40
2022-11-02T13:41:47.735Z,1.37
2022-11-02T13:44:39.223Z,1.80
2022-11-02T13:47:38.718Z,1.63
2022-11-02T13:50:17.309Z,1.20
2022-11-02T13:52:52.795Z,1.43
2022-11-02T13:55:25.406Z,1.20
2022-11-02T13:57:58.427Z,2.30
2022-11-02T14:00:25.183Z,1.40
2022-11-02T14:03:16.169Z,1.30
2022-11-02T14:05:55.141Z,1.57
2022-11-02T14:08:50.382Z,1.53
2022-11-02T14:11:17.177Z,1.90
2022-11-02T14:13:58.608Z,1.60
2022-11-02T14:16:46.621Z,1.53
2022-11-02T14:19:51.977Z,1.83
2022-11-02T14:22:20.105Z,1.73
2022-11-02T14:24:48.253Z,1.67
2022-11-02T14:27:19.164Z,1.40
2022-11-02T14:29:46.056Z,1.77
2022-11-02T14:32:22.357Z,2.60
2022-11-02T14:35:26.646Z,1.67
2022-11-02T14:38:08.981Z,2.67
2022-11-02T14:41:13.285Z,1.30
2022-11-02T14:43:58.417Z,1.43
2022-11-02T14:46:39.922Z,1.77
2022-11-02T14:49:27.774Z,1.50
2022-11-02T14:52:14.597Z,2.70
2022-11-02T14:55:17.934Z,1.80
2022-11-02T14:57:59.945Z,1.90
2022-11-02T15:00:49.049Z,1.97
2022-11-02T15:03:25.151Z,3.20
2022-11-02T15:06:10.724Z,8.00
2022-11-02T15:08:52.567Z,16.00
2022-11-02T15:12:00.350Z,2.00
2022-11-02T15:14:36.383Z,2.40
2022-11-02T15:17:26.574Z,2.10
2022-11-02T15:20:16.265Z,1.93
2022-11-02T15:22:52.658Z,1.50
2022-11-02T15:25:53.638Z,2.10
2022-11-02T15:28:28.367Z,1.80
2022-11-02T15:31:00.124Z,2.30
2022-11-02T15:33:47.006Z,1.67
2022-11-02T15:36:30.602Z,1.80
2022-11-02T15:38:58.034Z,1.60
2022-11-02T15:41:30.648Z,1.60
2022-11-02T15:44:38.340Z,2.43
2022-11-02T15:47:36.294Z,2.60
2022-11-02T15:50:24.979Z,1.80
2022-11-02T15:53:24.471Z,1.47
2022-11-02T15:56:15.370Z,1.80
2022-11-02T15:58:58.610Z,2.40
2022-11-02T16:01:29.454Z,1.73
2022-11-02T16:04:01.969Z,4.43
2022-11-02T16:06:39.973Z,5.90
2022-11-02T16:09:33.074Z,2.20
2022-11-02T16:12:19.477Z,1.90
2022-11-02T16:15:14.940Z,2.60
2022-11-02T16:17:42.400Z,2.67
2022-11-02T16:20:19.613Z,2.07
2022-11-02T16:23:04.504Z,2.03
2022-11-02T16:25:59.185Z,2.63
2022-11-02T16:28:34.668Z,2.27
2022-11-02T16:31:21.658Z,2.30
2022-11-02T16:33:54.607Z,2.20
2022-11-02T16:36:26.325Z,2.23
2022-11-02T16:39:07.114Z,2.37
2022-11-02T16:41:35.503Z,2.60
2022-11-02T16:44:11.858Z,2.70
2022-11-02T16:47:25.462Z,2.27
2022-11-02T16:49:52.211Z,2.83
2022-11-02T16:52:33.003Z,2.20
2022-11-02T16:55:00.265Z,13.37
2022-11-02T16:57:32.098Z,11.70
2022-11-02T17:00:11.317Z,5.83
2022-11-02T17:02:43.661Z,2.87
2022-11-02T17:05:26.734Z,3.83
2022-11-02T17:08:08.635Z,2.50
2022-11-02T17:10:38.385Z,2.10
2022-11-02T17:13:18.794Z,2.70
2022-11-02T17:15:50.171Z,2.17
2022-11-02T17:18:28.229Z,2.10
2022-11-02T17:21:27.956Z,2.00
2022-11-02T17:23:57.571Z,2.20
2022-11-02T17:26:25.877Z,2.80
2022-11-02T17:29:24.988Z,2.00
2022-11-02T17:31:58.597Z,2.33
2022-11-02T17:34:25.752Z,2.33
2022-11-02T17:36:52.790Z,2.77
2022-11-02T17:39:21.063Z,2.53
2022-11-02T17:42:15.195Z,2.90
2022-11-02T17:44:42.322Z,2.17
2022-11-02T17:47:14.783Z,3.17
2022-11-02T17:49:41.641Z,2.80
2022-11-02T17:52:13.835Z,2.37
2022-11-02T17:54:41.019Z,2.50
2022-11-02T17:57:15.585Z,2.43
2022-11-02T17:59:42.658Z,2.53
2022-11-02T18:02:16.544Z,2.67
2022-11-02T18:07:16.333Z,3.47
2022-11-02T18:09:43.583Z,2.40
2022-11-02T18:12:14.204Z,2.40
2022-11-02T18:14:41.820Z,4.67
2022-11-02T18:17:09.210Z,3.87
2022-11-02T18:19:36.096Z,3.67
2022-11-02T18:22:03.108Z,2.83
2022-11-02T18:24:29.972Z,2.90
2022-11-02T18:26:56.866Z,2.27
2022-11-02T18:29:23.870Z,3.10
2022-11-02T18:31:50.792Z,3.50
2022-11-02T18:34:17.669Z,2.80
2022-11-02T18:36:44.586Z,3.47
2022-11-02T18:39:11.549Z,2.67
2022-11-02T18:41:40.333Z,2.77
2022-11-02T18:44:14.878Z,3.37
2022-11-02T18:46:42.824Z,2.73
2022-11-02T18:49:09.822Z,3.40
2022-11-02T18:51:36.801Z,2.90
2022-11-02T18:54:06.280Z,3.47
2022-11-02T18:56:33.415Z,5.23
2022-11-02T18:59:00.656Z,2.80
2022-11-02T19:01:28.316Z,2.70
2022-11-02T19:03:58.572Z,3.43
2022-11-02T19:06:46.762Z,3.97
2022-11-02T19:09:21.503Z,3.53
2022-11-02T19:12:00.405Z,3.93
2022-11-02T19:14:38.116Z,3.60
2022-11-02T19:17:06.694Z,4.27
2022-11-02T19:19:34.259Z,4.87
2022-11-02T19:22:02.308Z,6.47
2022-11-02T19:24:29.710Z,6.00
2022-11-02T19:26:56.746Z,5.33
2022-11-02T19:29:23.647Z,4.70
2022-11-02T19:31:50.740Z,5.50
2022-11-02T19:34:17.643Z,7.60
2022-11-02T19:36:44.747Z,4.40
2022-11-02T19:39:11.837Z,4.33
2022-11-02T19:41:39.835Z,4.80
2022-11-02T19:44:07.157Z,4.67
2022-11-02T19:46:34.664Z,4.30
2022-11-02T19:49:01.623Z,5.40
2022-11-02T19:51:31.342Z,4.20
2022-11-02T19:54:00.865Z,3.73
2022-11-02T19:56:30.395Z,4.77
2022-11-02T19:58:58.036Z,4.20
2022-11-02T20:01:31.430Z,3.87
2022-11-02T20:03:59.099Z,5.37
2022-11-02T20:06:37.149Z,5.90
2022-11-02T20:09:07.546Z,4.90
2022-11-02T20:11:36.139Z,5.17
2022-11-02T20:14:05.349Z,8.93
2022-11-02T20:16:32.263Z,6.23
2022-11-02T20:18:59.399Z,4.67
2022-11-02T20:21:34.616Z,5.07
2022-11-02T20:24:04.660Z,4.60
2022-11-02T20:26:36.641Z,4.70
2022-11-02T20:29:05.895Z,4.23
2022-11-02T20:31:37.076Z,4.70
2022-11-02T20:34:06.841Z,5.00
2022-11-02T20:36:34.737Z,4.27
2022-11-02T20:39:04.608Z,4.00
2022-11-02T20:41:31.562Z,4.70
2022-11-02T20:43:58.565Z,5.57
2022-11-02T20:46:38.194Z,4.70
2022-11-02T20:49:22.324Z,4.40
2022-11-02T20:51:53.820Z,5.03
2022-11-02T20:54:22.235Z,4.90
2022-11-02T20:56:51.350Z,5.27
2022-11-02T20:59:18.449Z,5.57
2022-11-02T21:01:46.052Z,4.87
2022-11-02T21:04:19.832Z,5.90
2022-11-02T21:06:48.637Z,5.13
2022-11-02T21:09:15.541Z,6.03
2022-11-02T21:12:01.015Z,5.20
2022-11-02T21:14:27.948Z,5.10
2022-11-02T21:16:55.486Z,5.07
2022-11-02T21:19:22.640Z,7.13
2022-11-02T21:21:50.468Z,6.93
2022-11-02T21:24:19.566Z,5.23
2022-11-02T21:26:46.488Z,5.90
2022-11-02T21:29:13.540Z,4.80
2022-11-02T21:31:40.482Z,5.83
2022-11-02T21:34:07.395Z,5.17
2022-11-02T21:36:34.291Z,5.40
2022-11-02T21:39:02.150Z,6.07
2022-11-02T21:41:29.508Z,5.07
2022-11-02T21:43:56.506Z,4.70
2022-11-02T21:46:25.547Z,4.70
2022-11-02T21:48:52.979Z,5.00
2022-11-02T21:51:21.745Z,4.83
2022-11-02T21:53:50.168Z,4.63
2022-11-02T21:56:25.609Z,5.07
2022-11-02T21:58:54.772Z,5.00
2022-11-02T22:01:44.483Z,4.33
2022-11-02T22:04:28.949Z,4.00
2022-11-02T22:06:56.902Z,4.47
2022-11-02T22:09:24.723Z,5.23
2022-11-02T22:12:10.477Z,5.20
2022-11-02T22:14:38.676Z,4.17
2022-11-02T22:17:16.482Z,4.57
2022-11-02T22:19:53.375Z,4.83
2022-11-02T22:22:20.301Z,4.80
2022-11-02T22:24:47.649Z,4.80
2022-11-02T22:27:14.589Z,4.80
2022-11-02T22:29:41.518Z,4.10
2022-11-02T22:32:08.534Z,6.80
2022-11-02T22:34:35.510Z,4.27
2022-11-02T22:37:22.337Z,3.70
2022-11-02T22:39:49.399Z,4.57
2022-11-02T22:42:16.252Z,4.23
2022-11-02T22:44:43.129Z,4.60
2022-11-02T22:47:10.064Z,4.07
2022-11-02T22:49:36.950Z,4.33
2022-11-02T22:52:03.882Z,4.47
2022-11-02T22:54:30.714Z,4.40
2022-11-02T22:56:57.591Z,5.73
2022-11-02T22:59:24.471Z,5.67
2022-11-02T23:01:51.535Z,5.10
2022-11-02T23:04:18.563Z,5.27
2022-11-02T23:06:45.507Z,4.80
2022-11-02T23:09:12.443Z,6.73
2022-11-02T23:11:39.446Z,5.30
2022-11-02T23:14:13.681Z,5.10
2022-11-02T23:16:48.968Z,5.00
2022-11-02T23:19:29.677Z,4.67
2022-11-02T23:22:21.514Z,5.30
2022-11-02T23:25:11.811Z,4.50
2022-11-02T23:28:14.412Z,5.20
2022-11-02T23:31:00.175Z,5.40
2022-11-02T23:33:32.923Z,4.97
2022-11-02T23:36:13.730Z,4.47
2022-11-02T23:39:01.208Z,5.97
2022-11-02T23:41:29.866Z,4.30
2022-11-02T23:44:11.639Z,5.17
2022-11-02T23:46:44.451Z,5.20
2022-11-02T23:49:12.586Z,5.80
2022-11-02T23:51:58.183Z,5.13
2022-11-02T23:54:43.598Z,5.80
2022-11-02T23:57:10.516Z,5.00
2022-11-02T23:59:37.406Z,4.87
